createdAt,value
2022-12-12T00:02:33.860Z,995.9479183977769
2022-12-12T00:07:33.941Z,995.9384541016905
2022-12-12T00:12:34.195Z,995.9019779770123
2022-12-12T00:17:34.476Z,996.2291063161479
2022-12-12T00:22:34.720Z,995.8995275241405
2022-12-12T00:27:34.969Z,996.0889483176105
2022-12-12T00:32:35.200Z,996.2110902720026
2022-12-12T00:37:35.463Z,996.0674196662853
2022-12-12T00:42:35.714Z,996.1503240285289
2022-12-12T00:47:35.975Z,996.0673557465022
2022-12-12T00:52:36.191Z,996.0298795618094
2022-12-12T00:57:36.439Z,996.1934200335107
2022-12-12T01:02:36.744Z,996.270885625062
2022-12-12T01:07:36.950Z,996.3897416120665
2022-12-12T01:12:37.201Z,996.4891909226317
2022-12-12T01:17:37.464Z,996.3936189959234
2022-12-12T01:22:37.688Z,996.3277749831918
2022-12-12T01:27:37.955Z,996.4301166575696
2022-12-12T01:32:38.215Z,996.3905003197859
2022-12-12T01:37:38.426Z,996.4168429103088
2022-12-12T01:42:43.709Z,996.5246590654524
2022-12-12T01:47:44.915Z,996.4827040455029
2022-12-12T01:52:49.174Z,996.6113397866824
2022-12-12T01:57:52.448Z,996.6188689912161
2022-12-12T02:02:52.643Z,996.709277986729
2022-12-12T02:07:53.004Z,996.8662868158181
2022-12-12T02:12:53.157Z,996.769561079034
2022-12-12T02:18:03.834Z,996.7484567554316
2022-12-12T02:23:13.587Z,996.9159047563375
2022-12-12T02:28:24.839Z,996.862219827532
2022-12-12T02:33:49.026Z,996.843590694124
2022-12-12T02:38:53.285Z,996.8864973243893
2022-12-12T02:43:57.512Z,996.9239846274309
2022-12-12T02:49:00.727Z,996.8781898843653
2022-12-12T02:54:01.011Z,997.0193100899977
2022-12-12T02:59:01.271Z,997.0626672834971
2022-12-12T03:04:07.473Z,996.9903394537617
2022-12-12T03:09:12.677Z,997.119777244313
2022-12-12T03:14:17.928Z,997.1887059820583
2022-12-12T03:19:24.171Z,997.2567339965854
2022-12-12T03:24:25.402Z,997.3085939549077
2022-12-12T03:29:27.679Z,997.3621359928775
2022-12-12T03:34:29.912Z,997.3829055283164
2022-12-12T03:44:45.358Z,997.5232058724058
2022-12-12T03:49:48.655Z,997.5300157732437
2022-12-12T03:54:53.850Z,997.4982802630028
2022-12-12T03:59:56.085Z,997.5665125961683
2022-12-12T04:04:59.392Z,997.6739648472458
2022-12-12T04:09:59.593Z,997.7043462024068
2022-12-12T04:15:10.101Z,997.779251665511
2022-12-12T04:20:14.186Z,997.7354152246024
2022-12-12T04:25:17.328Z,997.814640247615
2022-12-12T04:30:19.552Z,997.816986873569
2022-12-12T04:35:22.823Z,997.8285708626579
2022-12-12T04:40:26.060Z,997.886274918682
2022-12-12T04:45:27.313Z,997.9011462175248
2022-12-12T04:50:29.562Z,998.0144562190176
2022-12-12T04:55:31.811Z,998.0419392395069
2022-12-12T05:00:31.988Z,998.0383709568518
2022-12-12T05:05:35.245Z,998.1727451191219
2022-12-12T05:10:37.516Z,998.1249504479227
2022-12-12T05:15:44.713Z,998.1681591990376
2022-12-12T05:20:44.974Z,998.3120646001801
2022-12-12T05:25:45.263Z,998.4663622009715
2022-12-12T05:30:45.558Z,998.3625725583883
2022-12-12T05:35:45.727Z,998.4003429573443
2022-12-12T05:40:46.002Z,998.4647786582507
2022-12-12T05:45:46.374Z,998.579777277296
2022-12-12T05:50:46.508Z,998.6843295843397
2022-12-12T05:55:46.735Z,998.668003169787
2022-12-12T06:00:46.995Z,998.7480649850904
2022-12-12T06:05:49.204Z,998.8022396681805
2022-12-12T06:10:49.447Z,998.9401736763144
2022-12-12T06:15:50.011Z,998.9549642407062
2022-12-12T06:20:49.997Z,998.9326843899149
2022-12-12T06:25:50.204Z,999.1602893541947
2022-12-12T06:30:50.553Z,999.2293872102344
2022-12-12T06:35:50.726Z,999.3005904673304
2022-12-12T06:40:50.962Z,999.232903964158
2022-12-12T06:45:51.211Z,999.1767520781594
2022-12-12T06:50:51.455Z,999.1782251753748
2022-12-12T06:55:53.704Z,999.3658887733754
2022-12-12T07:00:53.989Z,999.4586353737193
2022-12-12T07:05:54.229Z,999.6614476702547
2022-12-12T07:10:54.449Z,999.6867244600153
2022-12-12T07:15:54.754Z,999.7302995179301
2022-12-12T07:20:54.975Z,999.8195009802065
2022-12-12T07:25:55.203Z,999.9548538178029
2022-12-12T07:30:55.552Z,1000.0571555461095
2022-12-12T07:35:55.713Z,999.8759697262551
2022-12-12T07:40:55.963Z,999.955643174508
2022-12-12T07:45:56.204Z,1000.0236907093838
2022-12-12T07:50:56.467Z,1000.0103396753013
2022-12-12T07:55:56.705Z,1000.1549271843126
2022-12-12T08:00:56.995Z,1000.1907136885834
2022-12-12T08:05:57.309Z,1000.3293614486845
2022-12-12T08:10:57.425Z,1000.2792144361345
2022-12-12T08:15:57.771Z,1000.2787860046362
2022-12-12T08:20:58.029Z,1000.3655131998655
2022-12-12T08:25:58.190Z,1000.3939352442857
2022-12-12T08:30:58.508Z,1000.4226769383686
2022-12-12T08:36:00.691Z,1000.4913451458531
2022-12-12T08:41:00.976Z,1000.5201431395535
2022-12-12T08:46:01.209Z,1000.7792781694236
2022-12-12T08:51:01.428Z,1000.7485788473897
2022-12-12T08:56:01.684Z,1000.7974810118143
2022-12-12T09:01:02.105Z,1000.831013690321
2022-12-12T09:06:02.187Z,1000.9822737998013
2022-12-12T09:11:02.468Z,1001.1245379448961
2022-12-12T09:21:18.972Z,1001.0160227398401
2022-12-12T09:26:19.145Z,1001.1467561494055
2022-12-12T09:32:00.317Z,1001.0384549133267
2022-12-12T09:37:01.575Z,1001.1048913813685
2022-12-12T09:42:09.751Z,1001.0940546274304
2022-12-12T09:47:16.024Z,1001.0705531831201
2022-12-12T09:52:27.727Z,1000.9794142587198
2022-12-12T10:01:50.882Z,1000.9408517641704
2022-12-12T10:06:56.061Z,1000.967889228847
2022-12-12T10:12:06.483Z,1001.0281964139905
2022-12-12T10:17:12.543Z,1001.0041951213782
2022-12-12T10:22:16.777Z,1001.0997886650589
2022-12-12T10:27:17.998Z,1001.0598005664469
2022-12-12T10:32:35.216Z,1001.1866206353213
2022-12-12T10:37:50.439Z,1001.1261246614428
2022-12-12T10:42:57.660Z,1001.0554938331322
2022-12-12T10:47:58.879Z,1001.012368080789
2022-12-12T10:53:01.153Z,1001.0150956468251
2022-12-12T10:58:07.357Z,1001.0779415489592
2022-12-12T11:03:13.678Z,1001.1533583568668
2022-12-12T11:08:22.009Z,1001.086768931697
2022-12-12T11:13:28.099Z,1001.0360154991336
2022-12-12T11:18:29.378Z,1001.042856702266
2022-12-12T11:23:30.625Z,1001.0348359317411
2022-12-12T11:28:34.812Z,1001.0041634723016
2022-12-12T11:33:40.089Z,1000.9598521923908
2022-12-12T11:38:50.298Z,1001.0298560637791
2022-12-12T11:43:57.534Z,1001.0593530425367
2022-12-12T11:49:19.679Z,1001.1034875993538
2022-12-12T11:54:22.916Z,1001.0805403393441
2022-12-12T11:59:37.168Z,1001.0848997622609
2022-12-12T12:04:53.516Z,1001.1218869394938
2022-12-12T12:10:01.641Z,1001.0595296848263
2022-12-12T12:15:21.803Z,1000.9982581125586
2022-12-12T12:20:33.060Z,1001.0513387210783
2022-12-12T12:25:43.295Z,1000.9768735389483
2022-12-12T12:30:55.572Z,1000.9724371737925
2022-12-12T12:36:06.692Z,1000.96857346963
2022-12-12T12:41:23.895Z,1000.9696410944188
2022-12-12T12:46:34.220Z,1000.9285442597522
2022-12-12T12:51:44.228Z,1001.0128495650861
2022-12-12T12:56:57.590Z,1000.9698662080483
2022-12-12T13:02:04.809Z,1001.0042633764825
2022-12-12T13:07:14.051Z,1000.9785676307662
2022-12-12T13:12:29.265Z,1001.0815594702493
2022-12-12T13:17:37.495Z,1001.1401677906532
2022-12-12T13:22:45.757Z,1001.0915173253031
2022-12-12T13:27:52.993Z,1001.1190586112291
2022-12-12T13:33:19.139Z,1001.2089221935295
2022-12-12T13:38:23.340Z,1001.2583144665368
2022-12-12T13:43:28.592Z,1001.2525368918901
2022-12-12T13:48:42.929Z,1001.2729626529006
2022-12-12T13:53:50.082Z,1001.315394438021
2022-12-12T13:58:52.295Z,1001.4009407022817
2022-12-12T14:04:01.556Z,1001.4368851885525
2022-12-12T14:09:03.749Z,1001.4665785102691
2022-12-12T14:14:18.970Z,1001.4769321047928
2022-12-12T14:19:34.194Z,1001.5437104699226
2022-12-12T14:25:19.379Z,1001.5249417088947
2022-12-12T14:30:21.557Z,1001.5167747423578
2022-12-12T14:35:29.854Z,1001.5316782251772
2022-12-12T14:40:37.032Z,1001.4774584789608
2022-12-12T14:45:57.373Z,1001.5303601019941
2022-12-12T14:51:07.468Z,1001.5574052384472
2022-12-12T14:56:09.723Z,1001.6570181113182
2022-12-12T15:01:26.899Z,1001.658634144964
2022-12-12T15:07:34.020Z,1001.6758022035406
2022-12-12T15:12:45.212Z,1001.7478695816131
2022-12-12T15:17:50.442Z,1001.7433476008962
2022-12-12T15:22:55.668Z,1001.8498659982346
2022-12-12T15:28:00.987Z,1001.76376446874
2022-12-12T15:33:03.172Z,1001.869889187533
2022-12-12T15:38:05.598Z,1001.920437339465
2022-12-12T15:43:07.669Z,1001.9851029040697
2022-12-12T15:48:13.903Z,1002.0442746379518
2022-12-12T15:53:19.136Z,1002.04963132684
2022-12-12T16:05:39.302Z,1002.1744145697447
2022-12-12T16:10:54.514Z,1002.0959831145024
2022-12-12T16:16:00.783Z,1002.1533050468522
2022-12-12T16:21:01.984Z,1002.1886090759648
2022-12-12T16:26:04.201Z,1002.225145957607
2022-12-12T16:31:06.517Z,1002.2461562950505
2022-12-12T16:36:08.688Z,1002.2624325293724
2022-12-12T16:41:12.954Z,1002.2468877870332
2022-12-12T16:46:18.398Z,1002.3548835037526
2022-12-12T16:51:21.451Z,1002.3703090849222
2022-12-12T17:02:49.685Z,1002.3480072331756
2022-12-12T17:07:45.987Z,1002.4615611627056
2022-12-12T17:12:42.246Z,1002.4200799573051
2022-12-12T17:17:38.494Z,1002.5296975030401
2022-12-12T17:22:34.756Z,1002.4918692986092
2022-12-12T17:27:30.998Z,1002.6231513962742
2022-12-12T17:32:27.290Z,1002.611500092496
2022-12-12T17:37:23.575Z,1002.657441131162
2022-12-12T17:42:19.793Z,1002.6104442439245
2022-12-12T17:47:16.044Z,1002.6501681548401
2022-12-12T17:52:12.371Z,1002.6724342249772
2022-12-12T17:57:08.554Z,1002.6997069566075
2022-12-12T18:02:04.860Z,1002.660615950499
2022-12-12T18:07:03.059Z,1002.7111798566631
2022-12-12T18:12:04.308Z,1002.7581787474846
2022-12-12T18:17:02.656Z,1002.7547160796547
2022-12-12T18:22:01.621Z,1002.8315244312921
2022-12-12T18:26:59.114Z,1002.81360110761
2022-12-12T18:31:55.409Z,1002.8467126202413
2022-12-12T18:36:52.620Z,1002.8401940105803
2022-12-12T18:41:48.851Z,1002.9594051895127
2022-12-12T18:46:46.132Z,1003.0462244197245
2022-12-12T18:51:44.384Z,1003.0927420060575
2022-12-12T18:56:40.698Z,1002.9793544268373
2022-12-12T19:01:37.026Z,1003.0539509192452
2022-12-12T19:06:37.264Z,1003.0262422034389
2022-12-12T19:11:34.388Z,1002.9595027013801
2022-12-12T19:16:34.737Z,1003.1392051704615
2022-12-12T19:21:35.079Z,1003.193374917465
2022-12-12T19:26:36.146Z,1003.3092308236161
2022-12-12T19:31:32.396Z,1003.2043443854392
2022-12-12T19:36:28.663Z,1003.2576523256106
2022-12-12T19:41:24.937Z,1003.3059817337836
2022-12-12T19:46:22.263Z,1003.3605988892859
2022-12-12T19:51:19.438Z,1003.4084271544477
2022-12-12T19:56:25.703Z,1003.521175460958
2022-12-12T20:01:36.977Z,1003.5597036397901
2022-12-12T20:06:34.137Z,1003.7822034713971
2022-12-12T20:11:35.571Z,1004.0032297455363
2022-12-12T20:16:35.692Z,1003.9712205443714
2022-12-12T20:22:00.894Z,1004.1357555798728
2022-12-12T20:26:59.109Z,1004.03159562491
2022-12-12T20:31:56.393Z,1003.9850429131121
2022-12-12T20:36:53.657Z,1004.050986562696
2022-12-12T20:41:50.891Z,1004.1043741274166
2022-12-12T20:46:48.147Z,1004.1925868092382
2022-12-12T20:51:56.511Z,1004.0940946682349
2022-12-12T20:56:53.607Z,1004.131709328251
2022-12-12T21:01:50.985Z,1004.2172689360108
2022-12-12T21:06:48.531Z,1004.2381414402345
2022-12-12T21:11:46.414Z,1004.269346834239
2022-12-12T21:16:42.662Z,1004.2160643067957
2022-12-12T21:21:42.893Z,1004.2898203582627
2022-12-12T21:27:22.250Z,1004.3700034900136
2022-12-12T21:30:19.608Z,1004.4332392926999
2022-12-12T21:31:27.533Z,1004.4391249424738
2022-12-12T21:34:43.966Z,1004.3757928730431
2022-12-12T21:38:21.463Z,1004.3624025201042
2022-12-12T21:41:34.898Z,1004.3779599242703
2022-12-12T21:46:16.274Z,1004.2483793500102
2022-12-12T21:51:13.487Z,1004.2244626998072
2022-12-12T21:56:13.750Z,1004.3538344625781
2022-12-12T22:01:10.051Z,1004.4346995155751
2022-12-12T22:06:09.212Z,1004.5207213217399
2022-12-12T22:11:07.468Z,1004.5141289809475
2022-12-12T22:16:03.798Z,1004.4726714686192
2022-12-12T22:21:02.024Z,1004.523440678226
2022-12-12T22:25:57.290Z,1004.4632861774604
2022-12-12T22:30:52.537Z,1004.458086039295
2022-12-12T22:35:47.758Z,1004.5002848614928
2022-12-12T22:38:55.333Z,1004.5106941201459
2022-12-12T22:43:52.584Z,1004.5570230803471
2022-12-12T22:48:47.833Z,1004.581932433635
2022-12-12T22:53:44.490Z,1004.5540071379125
2022-12-12T22:58:39.350Z,1004.5704523667696
2022-12-12T23:03:34.627Z,1004.6217004639636
2022-12-12T23:08:29.949Z,1004.6775745057806
2022-12-12T23:13:25.149Z,1004.6940107220911
2022-12-12T23:18:20.424Z,1004.7258698714802
2022-12-12T23:23:15.702Z,1004.7131465873966
2022-12-12T23:28:14.052Z,1004.7654034789077
2022-12-12T23:33:09.176Z,1004.6268235226594
2022-12-12T23:38:04.461Z,1004.638222377742
2022-12-12T23:42:59.706Z,1004.5911962120964
2022-12-12T23:47:54.938Z,1004.6806575595597
2022-12-12T23:52:50.217Z,1004.6843981928834
2022-12-12T23:57:45.507Z,1004.674644083107
